sensor_id;sensor_type;location;lat;lon;timestamp;temperature;humidity
13856;DHT22;6998;53.608;9.958;2023-05-14T00:00:22;12.40;99.90
13856;DHT22;6998;53.608;9.958;2023-05-14T00:02:48;12.40;99.90
13856;DHT22;6998;53.608;9.958;2023-05-14T00:05:16;12.40;99.90
13856;DHT22;6998;53.608;9.958;2023-05-14T00:07:43;12.40;99.90
13856;DHT22;6998;53.608;9.958;2023-05-14T00:10:10;12.30;99.90
13856;DHT22;6998;53.608;9.958;2023-05-14T00:12:36;12.30;99.90
13856;DHT22;6998;53.608;9.958;2023-05-14T00:15:03;12.20;99.90
13856;DHT22;6998;53.608;9.958;2023-05-14T00:17:30;12.20;99.90
13856;DHT22;6998;53.608;9.958;2023-05-14T00:19:57;12.20;99.90
13856;DHT22;6998;53.608;9.958;2023-05-14T00:22:25;12.10;99.90
13856;DHT22;6998;53.608;9.958;2023-05-14T00:24:52;12.10;99.90
13856;DHT22;6998;53.608;9.958;2023-05-14T00:27:18;12.10;99.90
13856;DHT22;6998;53.608;9.958;2023-05-14T00:29:45;12.00;99.90
13856;DHT22;6998;53.608;9.958;2023-05-14T00:32:12;11.90;99.90
13856;DHT22;6998;53.608;9.958;2023-05-14T00:34:39;11.90;99.90
13856;DHT22;6998;53.608;9.958;2023-05-14T00:37:05;11.80;99.90
13856;DHT22;6998;53.608;9.958;2023-05-14T00:39:33;11.80;99.90
13856;DHT22;6998;53.608;9.958;2023-05-14T00:42:00;11.80;99.90
13856;DHT22;6998;53.608;9.958;2023-05-14T00:44:27;11.70;99.90
13856;DHT22;6998;53.608;9.958;2023-05-14T00:46:53;11.60;99.90
13856;DHT22;6998;53.608;9.958;2023-05-14T00:49:20;11.60;99.90
13856;DHT22;6998;53.608;9.958;2023-05-14T00:51:47;11.60;99.90
13856;DHT22;6998;53.608;9.958;2023-05-14T00:54:15;11.60;99.90
13856;DHT22;6998;53.608;9.958;2023-05-14T00:56:44;11.50;99.90
13856;DHT22;6998;53.608;9.958;2023-05-14T00:59:11;11.50;99.90
13856;DHT22;6998;53.608;9.958;2023-05-14T01:01:38;11.40;99.90
13856;DHT22;6998;53.608;9.958;2023-05-14T01:04:08;11.30;99.90
13856;DHT22;6998;53.608;9.958;2023-05-14T01:06:42;11.40;99.90
13856;DHT22;6998;53.608;9.958;2023-05-14T01:09:16;11.50;99.90
13856;DHT22;6998;53.608;9.958;2023-05-14T01:11:51;11.40;99.90
13856;DHT22;6998;53.608;9.958;2023-05-14T01:14:23;11.40;99.90
13856;DHT22;6998;53.608;9.958;2023-05-14T01:16:56;11.30;99.90
13856;DHT22;6998;53.608;9.958;2023-05-14T01:19:31;11.30;99.90
13856;DHT22;6998;53.608;9.958;2023-05-14T01:22:00;11.20;99.90
13856;DHT22;6998;53.608;9.958;2023-05-14T01:24:27;11.20;99.90
13856;DHT22;6998;53.608;9.958;2023-05-14T01:26:58;11.10;99.90
13856;DHT22;6998;53.608;9.958;2023-05-14T01:29:28;11.10;99.90
13856;DHT22;6998;53.608;9.958;2023-05-14T01:31:56;11.10;99.90
13856;DHT22;6998;53.608;9.958;2023-05-14T01:34:25;11.00;99.90
13856;DHT22;6998;53.608;9.958;2023-05-14T01:36:54;11.00;99.90
13856;DHT22;6998;53.608;9.958;2023-05-14T01:39:24;10.90;99.90
13856;DHT22;6998;53.608;9.958;2023-05-14T01:41:52;10.90;99.90
13856;DHT22;6998;53.608;9.958;2023-05-14T01:44:20;10.80;99.90
13856;DHT22;6998;53.608;9.958;2023-05-14T01:46:47;10.80;99.90
13856;DHT22;6998;53.608;9.958;2023-05-14T01:49:13;10.70;99.90
13856;DHT22;6998;53.608;9.958;2023-05-14T01:51:42;10.70;99.90
13856;DHT22;6998;53.608;9.958;2023-05-14T01:54:09;10.70;99.90
13856;DHT22;6998;53.608;9.958;2023-05-14T01:56:37;10.70;99.90
13856;DHT22;6998;53.608;9.958;2023-05-14T01:59:03;10.70;99.90
13856;DHT22;6998;53.608;9.958;2023-05-14T02:01:30;10.70;99.90
13856;DHT22;6998;53.608;9.958;2023-05-14T02:03:58;10.70;99.90
13856;DHT22;6998;53.608;9.958;2023-05-14T02:06:25;10.60;99.90
13856;DHT22;6998;53.608;9.958;2023-05-14T02:08:52;10.60;99.90
13856;DHT22;6998;53.608;9.958;2023-05-14T02:11:18;10.60;99.90
13856;DHT22;6998;53.608;9.958;2023-05-14T02:13:47;10.60;99.90
13856;DHT22;6998;53.608;9.958;2023-05-14T02:16:14;10.60;99.90
13856;DHT22;6998;53.608;9.958;2023-05-14T02:18:40;10.60;99.90
13856;DHT22;6998;53.608;9.958;2023-05-14T02:21:07;10.60;99.90
13856;DHT22;6998;53.608;9.958;2023-05-14T02:23:34;10.60;99.90
13856;DHT22;6998;53.608;9.958;2023-05-14T02:26:00;10.60;99.90
13856;DHT22;6998;53.608;9.958;2023-05-14T02:28:27;10.60;99.90
13856;DHT22;6998;53.608;9.958;2023-05-14T02:30:58;10.50;99.90
13856;DHT22;6998;53.608;9.958;2023-05-14T02:33:25;10.50;99.90
13856;DHT22;6998;53.608;9.958;2023-05-14T02:35:53;10.40;99.90
13856;DHT22;6998;53.608;9.958;2023-05-14T02:38:20;10.40;99.90
13856;DHT22;6998;53.608;9.958;2023-05-14T02:40:46;10.40;99.90
13856;DHT22;6998;53.608;9.958;2023-05-14T02:43:13;10.40;99.90
13856;DHT22;6998;53.608;9.958;2023-05-14T02:45:40;10.30;99.90
13856;DHT22;6998;53.608;9.958;2023-05-14T02:48:08;10.40;99.90
13856;DHT22;6998;53.608;9.958;2023-05-14T02:50:34;10.40;99.90
13856;DHT22;6998;53.608;9.958;2023-05-14T02:53:01;10.40;99.90
13856;DHT22;6998;53.608;9.958;2023-05-14T02:55:27;10.40;99.90
13856;DHT22;6998;53.608;9.958;2023-05-14T02:57:54;10.40;99.90
13856;DHT22;6998;53.608;9.958;2023-05-14T03:00:21;10.30;99.90
13856;DHT22;6998;53.608;9.958;2023-05-14T03:02:47;10.30;99.90
13856;DHT22;6998;53.608;9.958;2023-05-14T03:05:15;10.30;99.90
13856;DHT22;6998;53.608;9.958;2023-05-14T03:07:42;10.30;99.90
13856;DHT22;6998;53.608;9.958;2023-05-14T03:10:09;10.20;99.90
13856;DHT22;6998;53.608;9.958;2023-05-14T03:12:36;10.20;99.90
13856;DHT22;6998;53.608;9.958;2023-05-14T03:15:03;10.20;99.90
13856;DHT22;6998;53.608;9.958;2023-05-14T03:17:30;10.20;99.90
13856;DHT22;6998;53.608;9.958;2023-05-14T03:19:57;10.10;99.90
13856;DHT22;6998;53.608;9.958;2023-05-14T03:22:25;10.10;99.90
13856;DHT22;6998;53.608;9.958;2023-05-14T03:24:52;10.20;99.90
13856;DHT22;6998;53.608;9.958;2023-05-14T03:27:18;10.10;99.90
13856;DHT22;6998;53.608;9.958;2023-05-14T03:29:45;10.10;99.90
13856;DHT22;6998;53.608;9.958;2023-05-14T03:32:12;10.10;99.90
13856;DHT22;6998;53.608;9.958;2023-05-14T03:34:38;10.10;99.90
13856;DHT22;6998;53.608;9.958;2023-05-14T03:37:05;10.00;99.90
13856;DHT22;6998;53.608;9.958;2023-05-14T03:39:33;10.10;99.90
13856;DHT22;6998;53.608;9.958;2023-05-14T03:42:00;10.10;99.90
13856;DHT22;6998;53.608;9.958;2023-05-14T03:44:27;10.10;99.90
13856;DHT22;6998;53.608;9.958;2023-05-14T03:46:53;10.20;99.90
13856;DHT22;6998;53.608;9.958;2023-05-14T03:49:20;10.10;99.90
13856;DHT22;6998;53.608;9.958;2023-05-14T03:51:47;10.20;99.90
13856;DHT22;6998;53.608;9.958;2023-05-14T03:54:14;10.10;99.90
13856;DHT22;6998;53.608;9.958;2023-05-14T03:56:42;10.10;99.90
13856;DHT22;6998;53.608;9.958;2023-05-14T03:59:08;10.10;99.90
13856;DHT22;6998;53.608;9.958;2023-05-14T04:01:35;10.10;99.90
13856;DHT22;6998;53.608;9.958;2023-05-14T04:04:01;10.00;99.90
13856;DHT22;6998;53.608;9.958;2023-05-14T04:06:28;10.00;99.90
13856;DHT22;6998;53.608;9.958;2023-05-14T04:08:55;10.00;99.90
13856;DHT22;6998;53.608;9.958;2023-05-14T04:11:22;10.00;99.90
13856;DHT22;6998;53.608;9.958;2023-05-14T04:13:50;10.00;99.90
13856;DHT22;6998;53.608;9.958;2023-05-14T04:16:16;10.10;99.90
13856;DHT22;6998;53.608;9.958;2023-05-14T04:18:45;10.10;99.90
13856;DHT22;6998;53.608;9.958;2023-05-14T04:21:11;10.10;99.90
13856;DHT22;6998;53.608;9.958;2023-05-14T04:23:38;10.20;99.90
13856;DHT22;6998;53.608;9.958;2023-05-14T04:26:05;10.20;99.90
13856;DHT22;6998;53.608;9.958;2023-05-14T04:28:31;10.30;99.90
13856;DHT22;6998;53.608;9.958;2023-05-14T04:30:59;10.30;99.90
13856;DHT22;6998;53.608;9.958;2023-05-14T04:33:26;10.30;99.90
13856;DHT22;6998;53.608;9.958;2023-05-14T04:35:53;10.30;99.90
13856;DHT22;6998;53.608;9.958;2023-05-14T04:38:20;10.40;99.90
13856;DHT22;6998;53.608;9.958;2023-05-14T04:40:47;10.40;99.90
13856;DHT22;6998;53.608;9.958;2023-05-14T04:43:14;10.50;99.90
13856;DHT22;6998;53.608;9.958;2023-05-14T04:45:44;10.50;99.90
13856;DHT22;6998;53.608;9.958;2023-05-14T04:48:12;10.60;99.90
13856;DHT22;6998;53.608;9.958;2023-05-14T04:50:38;10.60;99.90
13856;DHT22;6998;53.608;9.958;2023-05-14T04:53:05;10.70;99.90
13856;DHT22;6998;53.608;9.958;2023-05-14T04:55:32;10.80;99.90
13856;DHT22;6998;53.608;9.958;2023-05-14T04:57:58;10.80;99.90
13856;DHT22;6998;53.608;9.958;2023-05-14T05:00:25;10.90;99.90
13856;DHT22;6998;53.608;9.958;2023-05-14T05:02:53;11.00;99.90
13856;DHT22;6998;53.608;9.958;2023-05-14T05:05:22;11.00;99.90
13856;DHT22;6998;53.608;9.958;2023-05-14T05:07:52;11.10;99.90
13856;DHT22;6998;53.608;9.958;2023-05-14T05:10:19;11.10;99.90
13856;DHT22;6998;53.608;9.958;2023-05-14T05:12:46;11.30;99.90
13856;DHT22;6998;53.608;9.958;2023-05-14T05:15:12;11.30;99.90
13856;DHT22;6998;53.608;9.958;2023-05-14T05:17:39;11.40;99.90
13856;DHT22;6998;53.608;9.958;2023-05-14T05:20:07;11.50;99.90
13856;DHT22;6998;53.608;9.958;2023-05-14T05:22:35;11.60;99.90
13856;DHT22;6998;53.608;9.958;2023-05-14T05:25:02;11.70;99.90
13856;DHT22;6998;53.608;9.958;2023-05-14T05:27:30;11.90;99.90
13856;DHT22;6998;53.608;9.958;2023-05-14T05:29:57;12.00;99.90
13856;DHT22;6998;53.608;9.958;2023-05-14T05:32:24;12.20;99.90
13856;DHT22;6998;53.608;9.958;2023-05-14T05:34:50;12.20;99.90
13856;DHT22;6998;53.608;9.958;2023-05-14T05:37:17;12.40;99.90
13856;DHT22;6998;53.608;9.958;2023-05-14T05:39:45;12.60;99.90
13856;DHT22;6998;53.608;9.958;2023-05-14T05:42:12;12.70;99.90
13856;DHT22;6998;53.608;9.958;2023-05-14T05:44:39;12.80;99.90
13856;DHT22;6998;53.608;9.958;2023-05-14T05:47:06;13.00;99.90
13856;DHT22;6998;53.608;9.958;2023-05-14T05:49:32;13.10;99.90
13856;DHT22;6998;53.608;9.958;2023-05-14T05:52:01;13.20;99.90
13856;DHT22;6998;53.608;9.958;2023-05-14T05:54:29;13.40;99.90
13856;DHT22;6998;53.608;9.958;2023-05-14T05:56:57;13.50;99.90
13856;DHT22;6998;53.608;9.958;2023-05-14T05:59:24;13.70;99.90
13856;DHT22;6998;53.608;9.958;2023-05-14T06:01:51;13.90;99.90
13856;DHT22;6998;53.608;9.958;2023-05-14T06:04:18;14.00;99.90
13856;DHT22;6998;53.608;9.958;2023-05-14T06:06:44;14.10;99.90
13856;DHT22;6998;53.608;9.958;2023-05-14T06:09:11;14.40;99.90
13856;DHT22;6998;53.608;9.958;2023-05-14T06:11:37;14.50;99.90
13856;DHT22;6998;53.608;9.958;2023-05-14T06:14:05;14.70;99.90
13856;DHT22;6998;53.608;9.958;2023-05-14T06:16:32;14.80;99.90
13856;DHT22;6998;53.608;9.958;2023-05-14T06:18:59;15.00;99.90
13856;DHT22;6998;53.608;9.958;2023-05-14T06:21:26;15.10;99.90
13856;DHT22;6998;53.608;9.958;2023-05-14T06:23:53;15.20;99.90
13856;DHT22;6998;53.608;9.958;2023-05-14T06:26:19;15.30;99.90
13856;DHT22;6998;53.608;9.958;2023-05-14T06:28:46;15.30;99.90
13856;DHT22;6998;53.608;9.958;2023-05-14T06:31:14;15.50;99.90
13856;DHT22;6998;53.608;9.958;2023-05-14T06:33:40;15.50;99.90
13856;DHT22;6998;53.608;9.958;2023-05-14T06:36:08;15.60;99.90
13856;DHT22;6998;53.608;9.958;2023-05-14T06:38:34;15.70;99.90
13856;DHT22;6998;53.608;9.958;2023-05-14T06:41:01;15.80;99.90
13856;DHT22;6998;53.608;9.958;2023-05-14T06:43:28;15.90;99.90
13856;DHT22;6998;53.608;9.958;2023-05-14T06:45:54;16.00;99.90
13856;DHT22;6998;53.608;9.958;2023-05-14T06:48:22;16.00;99.90
13856;DHT22;6998;53.608;9.958;2023-05-14T06:50:52;16.20;99.90
13856;DHT22;6998;53.608;9.958;2023-05-14T06:53:18;16.20;99.90
13856;DHT22;6998;53.608;9.958;2023-05-14T06:55:46;16.30;99.90
13856;DHT22;6998;53.608;9.958;2023-05-14T06:58:13;16.40;99.90
13856;DHT22;6998;53.608;9.958;2023-05-14T07:00:39;16.50;99.90
13856;DHT22;6998;53.608;9.958;2023-05-14T07:03:06;16.60;99.90
13856;DHT22;6998;53.608;9.958;2023-05-14T07:05:34;16.70;99.90
13856;DHT22;6998;53.608;9.958;2023-05-14T07:08:01;16.80;99.90
13856;DHT22;6998;53.608;9.958;2023-05-14T07:10:27;17.00;99.90
13856;DHT22;6998;53.608;9.958;2023-05-14T07:12:55;17.10;99.90
13856;DHT22;6998;53.608;9.958;2023-05-14T07:15:21;17.30;99.90
13856;DHT22;6998;53.608;9.958;2023-05-14T07:17:48;17.40;99.90
13856;DHT22;6998;53.608;9.958;2023-05-14T07:20:15;17.50;99.90
13856;DHT22;6998;53.608;9.958;2023-05-14T07:22:43;17.70;99.90
13856;DHT22;6998;53.608;9.958;2023-05-14T07:25:09;17.90;99.90
13856;DHT22;6998;53.608;9.958;2023-05-14T07:27:36;18.00;99.90
13856;DHT22;6998;53.608;9.958;2023-05-14T07:30:03;18.00;99.90
13856;DHT22;6998;53.608;9.958;2023-05-14T07:32:30;18.20;99.90
13856;DHT22;6998;53.608;9.958;2023-05-14T07:34:57;18.20;99.90
13856;DHT22;6998;53.608;9.958;2023-05-14T07:37:23;18.40;99.90
13856;DHT22;6998;53.608;9.958;2023-05-14T07:39:52;18.60;99.90
13856;DHT22;6998;53.608;9.958;2023-05-14T07:42:19;18.70;99.90
13856;DHT22;6998;53.608;9.958;2023-05-14T07:44:45;18.90;99.90
13856;DHT22;6998;53.608;9.958;2023-05-14T07:47:12;19.10;99.90
13856;DHT22;6998;53.608;9.958;2023-05-14T07:49:39;19.30;99.90
13856;DHT22;6998;53.608;9.958;2023-05-14T07:52:05;19.50;99.90
13856;DHT22;6998;53.608;9.958;2023-05-14T07:54:33;19.70;99.90
13856;DHT22;6998;53.608;9.958;2023-05-14T07:57:01;19.90;99.90
13856;DHT22;6998;53.608;9.958;2023-05-14T07:59:27;20.10;99.90
13856;DHT22;6998;53.608;9.958;2023-05-14T08:01:54;20.10;99.90
13856;DHT22;6998;53.608;9.958;2023-05-14T08:04:21;20.00;99.90
13856;DHT22;6998;53.608;9.958;2023-05-14T08:06:48;20.10;99.90
13856;DHT22;6998;53.608;9.958;2023-05-14T08:09:15;20.30;99.90
13856;DHT22;6998;53.608;9.958;2023-05-14T08:11:44;20.40;99.90
13856;DHT22;6998;53.608;9.958;2023-05-14T08:14:12;20.60;99.90
13856;DHT22;6998;53.608;9.958;2023-05-14T08:16:39;20.70;99.90
13856;DHT22;6998;53.608;9.958;2023-05-14T08:19:05;20.80;99.90
13856;DHT22;6998;53.608;9.958;2023-05-14T08:21:33;20.90;99.90
13856;DHT22;6998;53.608;9.958;2023-05-14T08:24:00;20.60;99.90
13856;DHT22;6998;53.608;9.958;2023-05-14T08:26:26;20.70;99.90
13856;DHT22;6998;53.608;9.958;2023-05-14T08:28:55;20.70;99.90
13856;DHT22;6998;53.608;9.958;2023-05-14T08:31:23;20.60;99.90
13856;DHT22;6998;53.608;9.958;2023-05-14T08:33:50;20.70;99.90
13856;DHT22;6998;53.608;9.958;2023-05-14T08:36:17;20.80;99.90
13856;DHT22;6998;53.608;9.958;2023-05-14T08:38:43;21.00;99.90
13856;DHT22;6998;53.608;9.958;2023-05-14T08:41:11;21.00;99.90
13856;DHT22;6998;53.608;9.958;2023-05-14T08:43:44;21.10;99.90
13856;DHT22;6998;53.608;9.958;2023-05-14T08:46:13;21.20;99.90
13856;DHT22;6998;53.608;9.958;2023-05-14T08:48:42;21.20;99.90
13856;DHT22;6998;53.608;9.958;2023-05-14T08:51:13;21.20;99.90
13856;DHT22;6998;53.608;9.958;2023-05-14T08:53:40;21.40;99.90
13856;DHT22;6998;53.608;9.958;2023-05-14T08:56:08;21.60;99.90
13856;DHT22;6998;53.608;9.958;2023-05-14T08:58:37;21.60;99.90
13856;DHT22;6998;53.608;9.958;2023-05-14T09:01:03;21.70;99.90
13856;DHT22;6998;53.608;9.958;2023-05-14T09:03:31;21.90;99.90
13856;DHT22;6998;53.608;9.958;2023-05-14T09:06:00;22.00;99.90
13856;DHT22;6998;53.608;9.958;2023-05-14T09:08:27;22.00;99.90
13856;DHT22;6998;53.608;9.958;2023-05-14T09:10:54;22.10;99.90
13856;DHT22;6998;53.608;9.958;2023-05-14T09:13:21;22.20;99.90
13856;DHT22;6998;53.608;9.958;2023-05-14T09:15:48;22.40;99.90
13856;DHT22;6998;53.608;9.958;2023-05-14T09:18:16;22.40;99.90
13856;DHT22;6998;53.608;9.958;2023-05-14T09:20:43;22.60;98.80
13856;DHT22;6998;53.608;9.958;2023-05-14T09:23:11;22.40;99.40
13856;DHT22;6998;53.608;9.958;2023-05-14T09:25:38;22.70;99.90
13856;DHT22;6998;53.608;9.958;2023-05-14T09:28:05;22.90;99.00
13856;DHT22;6998;53.608;9.958;2023-05-14T09:30:36;23.00;99.40
13856;DHT22;6998;53.608;9.958;2023-05-14T09:33:03;23.40;99.90
13856;DHT22;6998;53.608;9.958;2023-05-14T09:35:31;23.50;98.10
13856;DHT22;6998;53.608;9.958;2023-05-14T09:37:58;23.70;98.10
13856;DHT22;6998;53.608;9.958;2023-05-14T09:40:26;23.90;96.60
13856;DHT22;6998;53.608;9.958;2023-05-14T09:42:53;23.90;96.30
13856;DHT22;6998;53.608;9.958;2023-05-14T09:45:20;23.80;94.30
13856;DHT22;6998;53.608;9.958;2023-05-14T09:47:47;23.70;95.60
13856;DHT22;6998;53.608;9.958;2023-05-14T09:50:16;23.10;94.30
13856;DHT22;6998;53.608;9.958;2023-05-14T09:52:43;23.20;96.10
13856;DHT22;6998;53.608;9.958;2023-05-14T09:55:09;23.40;94.60
13856;DHT22;6998;53.608;9.958;2023-05-14T09:57:37;23.50;95.40
13856;DHT22;6998;53.608;9.958;2023-05-14T10:00:05;23.70;93.20
13856;DHT22;6998;53.608;9.958;2023-05-14T10:02:35;23.60;92.50
13856;DHT22;6998;53.608;9.958;2023-05-14T10:05:04;23.70;92.40
13856;DHT22;6998;53.608;9.958;2023-05-14T10:07:34;23.60;91.30
13856;DHT22;6998;53.608;9.958;2023-05-14T10:10:06;23.60;92.10
13856;DHT22;6998;53.608;9.958;2023-05-14T10:12:39;23.80;92.10
13856;DHT22;6998;53.608;9.958;2023-05-14T10:15:11;23.70;92.10
13856;DHT22;6998;53.608;9.958;2023-05-14T10:17:43;23.70;92.90
13856;DHT22;6998;53.608;9.958;2023-05-14T10:20:14;24.10;92.60
13856;DHT22;6998;53.608;9.958;2023-05-14T10:22:41;24.60;93.40
13856;DHT22;6998;53.608;9.958;2023-05-14T10:25:08;24.80;90.20
13856;DHT22;6998;53.608;9.958;2023-05-14T10:27:36;24.70;89.20
13856;DHT22;6998;53.608;9.958;2023-05-14T10:30:11;24.50;91.00
13856;DHT22;6998;53.608;9.958;2023-05-14T10:33:12;24.30;89.60
13856;DHT22;6998;53.608;9.958;2023-05-14T10:36:13;24.30;90.80
13856;DHT22;6998;53.608;9.958;2023-05-14T10:38:42;23.90;90.40
13856;DHT22;6998;53.608;9.958;2023-05-14T10:41:18;23.30;90.50
13856;DHT22;6998;53.608;9.958;2023-05-14T10:43:46;23.40;92.60
13856;DHT22;6998;53.608;9.958;2023-05-14T10:46:14;23.30;89.70
13856;DHT22;6998;53.608;9.958;2023-05-14T10:48:42;23.40;90.20
13856;DHT22;6998;53.608;9.958;2023-05-14T10:51:10;23.20;90.90
13856;DHT22;6998;53.608;9.958;2023-05-14T10:53:39;23.40;94.10
13856;DHT22;6998;53.608;9.958;2023-05-14T10:56:07;23.10;92.10
13856;DHT22;6998;53.608;9.958;2023-05-14T10:58:35;23.20;91.00
13856;DHT22;6998;53.608;9.958;2023-05-14T11:01:04;23.50;91.70
13856;DHT22;6998;53.608;9.958;2023-05-14T11:03:38;23.80;90.10
13856;DHT22;6998;53.608;9.958;2023-05-14T11:06:06;23.90;91.60
13856;DHT22;6998;53.608;9.958;2023-05-14T11:08:34;24.20;90.20
13856;DHT22;6998;53.608;9.958;2023-05-14T11:11:01;24.20;90.90
13856;DHT22;6998;53.608;9.958;2023-05-14T11:13:28;24.40;91.10
13856;DHT22;6998;53.608;9.958;2023-05-14T11:15:55;24.60;90.70
13856;DHT22;6998;53.608;9.958;2023-05-14T11:18:26;25.00;91.60
13856;DHT22;6998;53.608;9.958;2023-05-14T11:20:57;25.40;88.40
13856;DHT22;6998;53.608;9.958;2023-05-14T11:23:24;25.60;87.70
13856;DHT22;6998;53.608;9.958;2023-05-14T11:25:51;25.50;87.60
13856;DHT22;6998;53.608;9.958;2023-05-14T11:28:19;25.20;89.00
13856;DHT22;6998;53.608;9.958;2023-05-14T11:30:46;24.90;88.40
13856;DHT22;6998;53.608;9.958;2023-05-14T11:33:13;24.50;90.00
13856;DHT22;6998;53.608;9.958;2023-05-14T11:35:40;24.30;88.50
13856;DHT22;6998;53.608;9.958;2023-05-14T11:38:14;24.10;89.50
13856;DHT22;6998;53.608;9.958;2023-05-14T11:40:41;24.30;88.90
13856;DHT22;6998;53.608;9.958;2023-05-14T11:43:08;24.40;88.50
13856;DHT22;6998;53.608;9.958;2023-05-14T11:45:35;24.40;85.40
13856;DHT22;6998;53.608;9.958;2023-05-14T11:48:10;24.20;86.90
13856;DHT22;6998;53.608;9.958;2023-05-14T11:50:37;24.60;90.00
13856;DHT22;6998;53.608;9.958;2023-05-14T11:53:04;24.90;86.00
13856;DHT22;6998;53.608;9.958;2023-05-14T11:55:34;25.10;89.80
13856;DHT22;6998;53.608;9.958;2023-05-14T11:58:01;24.90;84.60
13856;DHT22;6998;53.608;9.958;2023-05-14T12:00:28;24.90;86.10
13856;DHT22;6998;53.608;9.958;2023-05-14T12:02:55;25.20;86.60
13856;DHT22;6998;53.608;9.958;2023-05-14T12:05:22;25.40;81.50
13856;DHT22;6998;53.608;9.958;2023-05-14T12:07:49;25.40;85.80
13856;DHT22;6998;53.608;9.958;2023-05-14T12:10:16;25.60;80.70
13856;DHT22;6998;53.608;9.958;2023-05-14T12:12:46;25.60;82.40
13856;DHT22;6998;53.608;9.958;2023-05-14T12:15:14;25.80;83.80
13856;DHT22;6998;53.608;9.958;2023-05-14T12:17:42;25.70;79.00
13856;DHT22;6998;53.608;9.958;2023-05-14T12:20:14;25.60;82.10
13856;DHT22;6998;53.608;9.958;2023-05-14T12:22:41;25.80;79.40
13856;DHT22;6998;53.608;9.958;2023-05-14T12:25:10;25.90;78.70
13856;DHT22;6998;53.608;9.958;2023-05-14T12:27:38;25.90;79.20
13856;DHT22;6998;53.608;9.958;2023-05-14T12:30:07;25.70;79.60
13856;DHT22;6998;53.608;9.958;2023-05-14T12:32:34;25.70;77.90
13856;DHT22;6998;53.608;9.958;2023-05-14T12:35:05;25.90;78.10
13856;DHT22;6998;53.608;9.958;2023-05-14T12:37:32;26.40;81.20
13856;DHT22;6998;53.608;9.958;2023-05-14T12:40:00;26.50;73.40
13856;DHT22;6998;53.608;9.958;2023-05-14T12:42:27;26.30;75.00
13856;DHT22;6998;53.608;9.958;2023-05-14T12:44:57;26.00;74.50
13856;DHT22;6998;53.608;9.958;2023-05-14T12:47:29;25.80;75.30
13856;DHT22;6998;53.608;9.958;2023-05-14T12:49:56;25.70;78.60
13856;DHT22;6998;53.608;9.958;2023-05-14T12:52:23;26.00;79.60
13856;DHT22;6998;53.608;9.958;2023-05-14T12:54:50;25.80;73.60
13856;DHT22;6998;53.608;9.958;2023-05-14T12:57:19;26.00;79.20
13856;DHT22;6998;53.608;9.958;2023-05-14T12:59:46;26.30;78.30
13856;DHT22;6998;53.608;9.958;2023-05-14T13:02:13;26.40;74.60
13856;DHT22;6998;53.608;9.958;2023-05-14T13:04:43;26.30;74.00
13856;DHT22;6998;53.608;9.958;2023-05-14T13:07:10;25.90;74.90
13856;DHT22;6998;53.608;9.958;2023-05-14T13:09:36;26.20;78.30
13856;DHT22;6998;53.608;9.958;2023-05-14T13:12:04;26.30;73.00
13856;DHT22;6998;53.608;9.958;2023-05-14T13:14:31;26.30;77.10
13856;DHT22;6998;53.608;9.958;2023-05-14T13:16:58;25.90;70.20
13856;DHT22;6998;53.608;9.958;2023-05-14T13:19:25;25.70;71.10
13856;DHT22;6998;53.608;9.958;2023-05-14T13:21:53;25.80;74.90
13856;DHT22;6998;53.608;9.958;2023-05-14T13:24:20;25.60;73.80
13856;DHT22;6998;53.608;9.958;2023-05-14T13:26:46;25.80;70.90
13856;DHT22;6998;53.608;9.958;2023-05-14T13:29:13;26.10;72.30
13856;DHT22;6998;53.608;9.958;2023-05-14T13:31:40;26.30;73.40
13856;DHT22;6998;53.608;9.958;2023-05-14T13:34:07;26.40;72.70
13856;DHT22;6998;53.608;9.958;2023-05-14T13:36:34;25.90;73.40
13856;DHT22;6998;53.608;9.958;2023-05-14T13:39:05;25.90;74.20
13856;DHT22;6998;53.608;9.958;2023-05-14T13:41:32;25.60;74.60
13856;DHT22;6998;53.608;9.958;2023-05-14T13:44:00;25.30;74.20
13856;DHT22;6998;53.608;9.958;2023-05-14T13:46:26;24.80;79.10
13856;DHT22;6998;53.608;9.958;2023-05-14T13:48:53;24.60;77.20
13856;DHT22;6998;53.608;9.958;2023-05-14T13:51:21;24.30;79.20
13856;DHT22;6998;53.608;9.958;2023-05-14T13:53:48;24.20;80.70
13856;DHT22;6998;53.608;9.958;2023-05-14T13:56:16;24.10;82.00
13856;DHT22;6998;53.608;9.958;2023-05-14T13:58:43;24.30;86.00
13856;DHT22;6998;53.608;9.958;2023-05-14T14:01:09;24.50;83.40
13856;DHT22;6998;53.608;9.958;2023-05-14T14:03:36;24.30;80.10
13856;DHT22;6998;53.608;9.958;2023-05-14T14:06:03;24.00;81.50
13856;DHT22;6998;53.608;9.958;2023-05-14T14:08:30;24.10;82.30
13856;DHT22;6998;53.608;9.958;2023-05-14T14:10:56;24.50;81.80
13856;DHT22;6998;53.608;9.958;2023-05-14T14:13:25;24.60;74.90
13856;DHT22;6998;53.608;9.958;2023-05-14T14:15:52;24.80;75.60
13856;DHT22;6998;53.608;9.958;2023-05-14T14:18:19;25.30;77.40
13856;DHT22;6998;53.608;9.958;2023-05-14T14:20:45;25.50;72.00
13856;DHT22;6998;53.608;9.958;2023-05-14T14:23:14;25.70;72.30
13856;DHT22;6998;53.608;9.958;2023-05-14T14:25:41;25.50;71.00
13856;DHT22;6998;53.608;9.958;2023-05-14T14:28:07;25.30;74.30
13856;DHT22;6998;53.608;9.958;2023-05-14T14:30:36;24.90;74.80
13856;DHT22;6998;53.608;9.958;2023-05-14T14:33:02;25.10;77.30
13856;DHT22;6998;53.608;9.958;2023-05-14T14:35:29;25.20;74.10
13856;DHT22;6998;53.608;9.958;2023-05-14T14:37:57;24.60;72.80
13856;DHT22;6998;53.608;9.958;2023-05-14T14:40:24;24.50;74.60
13856;DHT22;6998;53.608;9.958;2023-05-14T14:42:51;24.60;75.20
13856;DHT22;6998;53.608;9.958;2023-05-14T14:45:18;24.60;77.90
13856;DHT22;6998;53.608;9.958;2023-05-14T14:47:48;24.30;75.50
13856;DHT22;6998;53.608;9.958;2023-05-14T14:50:15;24.40;78.80
13856;DHT22;6998;53.608;9.958;2023-05-14T14:52:42;24.60;76.80
13856;DHT22;6998;53.608;9.958;2023-05-14T14:55:09;25.10;77.20
13856;DHT22;6998;53.608;9.958;2023-05-14T14:57:36;25.40;75.20
13856;DHT22;6998;53.608;9.958;2023-05-14T15:00:04;25.40;74.80
13856;DHT22;6998;53.608;9.958;2023-05-14T15:02:31;25.30;76.20
13856;DHT22;6998;53.608;9.958;2023-05-14T15:04:59;25.00;74.50
13856;DHT22;6998;53.608;9.958;2023-05-14T15:07:26;24.50;75.50
13856;DHT22;6998;53.608;9.958;2023-05-14T15:09:57;24.10;75.00
13856;DHT22;6998;53.608;9.958;2023-05-14T15:12:23;23.70;76.50
13856;DHT22;6998;53.608;9.958;2023-05-14T15:14:50;23.60;78.70
13856;DHT22;6998;53.608;9.958;2023-05-14T15:17:18;23.50;79.50
13856;DHT22;6998;53.608;9.958;2023-05-14T15:19:45;23.60;80.30
13856;DHT22;6998;53.608;9.958;2023-05-14T15:22:13;23.80;81.10
13856;DHT22;6998;53.608;9.958;2023-05-14T15:24:43;24.00;79.70
13856;DHT22;6998;53.608;9.958;2023-05-14T15:27:10;24.10;79.10
13856;DHT22;6998;53.608;9.958;2023-05-14T15:29:36;24.00;79.40
13856;DHT22;6998;53.608;9.958;2023-05-14T15:32:04;24.30;81.40
13856;DHT22;6998;53.608;9.958;2023-05-14T15:34:31;24.50;78.00
13856;DHT22;6998;53.608;9.958;2023-05-14T15:36:57;24.90;78.10
13856;DHT22;6998;53.608;9.958;2023-05-14T15:39:25;25.10;76.40
13856;DHT22;6998;53.608;9.958;2023-05-14T15:41:52;25.20;74.60
13856;DHT22;6998;53.608;9.958;2023-05-14T15:44:19;25.10;76.10
13856;DHT22;6998;53.608;9.958;2023-05-14T15:46:45;25.00;76.80